Time;durP1;ratioP1;P1;durP2;ratioP2;P2;SDS_P1;SDS_P2;PMS_P1;PMS_P2;Temp;Humidity;BMP_temperature;BMP_pressure;BME280_temperature;BME280_humidity;BME280_pressure;Samples;Min_cycle;Max_cycle;Signal;HPM_P1;HPM_P2
2022/12/12 00:02:06;;;;;;;;;;;;;;;9.84;83.28;98394.03;5063220;28;19956;-74
2022/12/12 00:04:32;;;;;;;;;;;;;;;9.88;83.37;98395.28;5062131;28;19920;-74
2022/12/12 00:06:57;;;;;;;;;;;;;;;9.95;82.68;98405.94;5063009;28;20012;-74
2022/12/12 00:09:22;;;;;;;;;;;;;;;10.13;82.77;98409.75;5062505;28;19921;-69
2022/12/12 00:11:48;;;;;;;;;;;;;;;10.16;82.12;98412.00;5063241;28;19917;-68
2022/12/12 00:14:13;;;;;;;;;;;;;;;10.14;82.32;98408.72;5062598;28;20000;-74
2022/12/12 00:16:38;;;;;;;;;;;;;;;9.98;82.66;98419.59;5060554;28;19963;-69
2022/12/12 00:19:03;;;;;;;;;;;;;;;10.08;82.22;98422.72;5061456;28;19921;-69
2022/12/12 00:21:29;;;;;;;;;;;;;;;10.05;82.76;98415.16;5060765;28;19966;-74
2022/12/12 00:23:55;;;;;;;;;;;;;;;10.13;81.24;98415.03;5061247;28;19920;-69
2022/12/12 00:26:28;;;;;;;;;;;;;;;9.86;81.43;98421.94;5062079;28;19952;-74
2022/12/12 00:28:54;;;;;;;;;;;;;;;9.92;81.70;98425.63;5060834;28;19944;-74
2022/12/12 00:31:19;;;;;;;;;;;;;;;9.85;81.23;98430.88;5061486;28;19917;-74
2022/12/12 00:33:46;;;;;;;;;;;;;;;9.62;82.38;98435.50;5061648;28;19921;-74
2022/12/12 00:36:12;;;;;;;;;;;;;;;9.60;83.28;98433.06;5060940;28;19963;-74
2022/12/12 00:38:37;;;;;;;;;;;;;;;9.51;83.69;98441.28;5062463;28;20138;-74
2022/12/12 00:41:03;;;;;;;;;;;;;;;9.50;83.14;98442.28;5060265;28;19955;-74
2022/12/12 00:43:29;;;;;;;;;;;;;;;9.36;84.29;98438.66;5061713;28;19928;-74
2022/12/12 00:45:57;;;;;;;;;;;;;;;9.43;84.19;98438.75;5061355;28;19967;-74
2022/12/12 00:48:22;;;;;;;;;;;;;;;9.50;83.41;98431.72;5075313;28;20199;-69
2022/12/12 00:50:47;;;;;;;;;;;;;;;9.42;83.80;98429.19;5061293;28;19925;-73
2022/12/12 00:53:12;;;;;;;;;;;;;;;9.30;83.79;98436.75;5059979;28;19920;-74
2022/12/12 00:55:38;;;;;;;;;;;;;;;9.29;82.90;98435.94;5061628;28;19916;-74
2022/12/12 00:58:04;;;;;;;;;;;;;;;9.02;84.19;98427.88;5060365;28;19928;-68
2022/12/12 01:00:29;;;;;;;;;;;;;;;8.79;84.58;98442.00;5060859;28;19924;-69
2022/12/12 01:02:55;;;;;;;;;;;;;;;8.78;84.21;98453.56;5061447;28;19951;-73
2022/12/12 01:05:21;;;;;;;;;;;;;;;8.88;84.14;98467.31;5061372;28;21126;-69
2022/12/12 01:07:46;;;;;;;;;;;;;;;8.81;84.31;98470.88;5060058;28;19948;-74
2022/12/12 01:10:11;;;;;;;;;;;;;;;8.83;84.30;98476.78;5061442;28;19923;-74
2022/12/12 01:12:36;;;;;;;;;;;;;;;8.88;83.75;98490.25;5059144;28;19924;-69
2022/12/12 01:15:03;;;;;;;;;;;;;;;8.80;83.64;98493.81;5062363;28;20165;-69
2022/12/12 01:17:28;;;;;;;;;;;;;;;8.80;84.05;98501.72;5060311;28;20229;-73
2022/12/12 01:19:54;;;;;;;;;;;;;;;9.06;83.58;98506.56;5059640;28;19921;-68
2022/12/12 01:22:19;;;;;;;;;;;;;;;9.19;82.31;98501.44;5061821;28;20015;-74
2022/12/12 01:24:44;;;;;;;;;;;;;;;8.98;83.28;98513.75;5059258;28;19928;-68
2022/12/12 01:27:09;;;;;;;;;;;;;;;9.24;81.93;98511.47;5061797;28;20245;-69
2022/12/12 01:29:35;;;;;;;;;;;;;;;8.91;82.44;98518.94;5059992;28;19952;-70
2022/12/12 01:32:00;;;;;;;;;;;;;;;8.60;83.85;98516.44;5061558;28;19958;-74
2022/12/12 01:34:26;;;;;;;;;;;;;;;8.84;83.35;98532.03;5059395;28;20145;-74
2022/12/12 01:36:51;;;;;;;;;;;;;;;8.48;84.10;98539.78;5061408;28;19925;-69
2022/12/12 01:39:16;;;;;;;;;;;;;;;8.48;84.84;98539.78;5061102;28;19940;-68
2022/12/12 01:41:42;;;;;;;;;;;;;;;8.24;85.42;98532.00;5060482;28;19954;-68
2022/12/12 01:44:27;;;;;;;;;;;;;;;8.20;85.30;98530.72;5059972;28;20202;-68
2022/12/12 01:46:52;;;;;;;;;;;;;;;8.25;85.06;98528.38;5060274;28;19944;-74
2022/12/12 01:49:27;;;;;;;;;;;;;;;8.60;84.49;98527.81;5060518;28;19928;-74
2022/12/12 01:51:55;;;;;;;;;;;;;;;8.58;83.75;98534.25;5060668;28;19935;-74
2022/12/12 01:54:24;;;;;;;;;;;;;;;8.50;84.17;98535.16;5060376;28;19921;-74
2022/12/12 01:56:50;;;;;;;;;;;;;;;8.47;84.01;98537.34;5060059;28;19944;-74
2022/12/12 01:59:18;;;;;;;;;;;;;;;8.33;84.69;98544.19;5060705;28;20206;-74
2022/12/12 02:01:44;;;;;;;;;;;;;;;8.50;83.65;98550.16;5059286;28;19913;-69
2022/12/12 02:04:10;;;;;;;;;;;;;;;8.68;83.52;98544.56;5061871;28;19921;-74
2022/12/12 02:06:36;;;;;;;;;;;;;;;8.75;82.68;98548.13;5064391;28;19917;-75
2022/12/12 02:09:03;;;;;;;;;;;;;;;8.79;82.02;98544.94;5063678;28;19935;-73
2022/12/12 02:11:30;;;;;;;;;;;;;;;8.69;82.24;98551.47;5063879;28;20086;-69
2022/12/12 02:13:56;;;;;;;;;;;;;;;8.51;82.99;98549.16;5064523;28;19921;-74
2022/12/12 02:16:33;;;;;;;;;;;;;;;8.54;82.78;98559.38;5064902;28;19931;-69
2022/12/12 02:18:58;;;;;;;;;;;;;;;8.59;82.57;98547.28;5063052;28;19947;-73
2022/12/12 02:21:50;;;;;;;;;;;;;;;8.60;82.36;98543.63;5063710;28;19917;-74
2022/12/12 02:24:27;;;;;;;;;;;;;;;8.68;82.78;98545.38;5062501;28;20119;-68
2022/12/12 02:27:09;;;;;;;;;;;;;;;8.81;82.11;98552.69;5063320;28;20223;-74
2022/12/12 02:29:47;;;;;;;;;;;;;;;8.81;81.77;98542.94;5063910;28;20215;-74
2022/12/12 02:32:12;;;;;;;;;;;;;;;9.01;81.28;98552.97;5063567;28;19980;-69
2022/12/12 02:34:48;;;;;;;;;;;;;;;9.10;81.52;98554.53;5062488;28;19921;-74
2022/12/12 02:37:13;;;;;;;;;;;;;;;9.09;81.36;98559.00;5062471;28;19924;-74
2022/12/12 02:39:47;;;;;;;;;;;;;;;9.14;81.60;98575.13;5064247;28;19921;-74
2022/12/12 02:42:24;;;;;;;;;;;;;;;9.19;81.64;98585.13;5063392;28;19923;-74
2022/12/12 02:45:01;;;;;;;;;;;;;;;9.16;81.43;98588.13;5062328;28;19921;-69
2022/12/12 02:47:30;;;;;;;;;;;;;;;9.24;81.05;98593.34;5078583;28;20153;-74
2022/12/12 02:50:01;;;;;;;;;;;;;;;9.45;79.97;98592.63;5063887;28;20209;-69
2022/12/12 02:52:26;;;;;;;;;;;;;;;9.20;80.72;98590.25;5062134;28;20002;-69
2022/12/12 02:54:52;;;;;;;;;;;;;;;9.27;81.02;98598.25;5062511;28;19920;-73
2022/12/12 02:57:18;;;;;;;;;;;;;;;9.29;80.37;98589.16;5062924;28;19917;-69
2022/12/12 02:59:47;;;;;;;;;;;;;;;9.33;79.97;98591.44;5064055;28;19999;-74
2022/12/12 03:02:18;;;;;;;;;;;;;;;9.23;80.70;98595.16;5062904;28;19917;-69
2022/12/12 03:07:45;;;;;;;;;;;;;;;9.37;80.22;98588.28;5063617;28;19989;-74
2022/12/12 03:10:14;;;;;;;;;;;;;;;9.43;79.67;98590.19;5062701;28;20234;-74
2022/12/12 03:12:44;;;;;;;;;;;;;;;9.41;79.57;98586.09;5064169;28;19959;-73
2022/12/12 03:15:09;;;;;;;;;;;;;;;9.23;79.55;98587.22;5063033;28;20102;-69
2022/12/12 03:17:43;;;;;;;;;;;;;;;9.27;79.85;98582.41;5062224;28;20092;-69
2022/12/12 03:20:16;;;;;;;;;;;;;;;9.16;80.15;98586.31;5062616;28;19928;-74
2022/12/12 03:23:01;;;;;;;;;;;;;;;9.15;80.28;98592.59;5063771;28;19984;-74
2022/12/12 03:25:37;;;;;;;;;;;;;;;9.31;79.82;98601.34;5061829;28;19929;-74
2022/12/12 03:28:05;;;;;;;;;;;;;;;9.28;80.08;98592.78;5063271;28;19921;-74
2022/12/12 03:30:34;;;;;;;;;;;;;;;9.30;79.84;98597.91;5062345;28;20182;-74
2022/12/12 03:33:03;;;;;;;;;;;;;;;9.47;79.42;98602.03;5063723;28;19921;-75
2022/12/12 03:35:32;;;;;;;;;;;;;;;9.70;78.11;98601.09;5061919;28;20143;-69
2022/12/12 03:38:01;;;;;;;;;;;;;;;9.62;77.96;98603.84;5057312;28;19939;-69
2022/12/12 03:40:30;;;;;;;;;;;;;;;9.55;78.42;98594.00;5063620;28;19925;-74
2022/12/12 03:43:05;;;;;;;;;;;;;;;9.77;77.37;98602.00;5061816;28;19920;-74
2022/12/12 03:45:38;;;;;;;;;;;;;;;9.76;77.90;98611.75;5061543;28;19993;-74
2022/12/12 03:48:14;;;;;;;;;;;;;;;9.84;77.63;98609.00;5064140;28;19921;-74
2022/12/12 03:50:54;;;;;;;;;;;;;;;9.77;77.37;98613.41;5060827;28;19996;-69
2022/12/12 03:53:29;;;;;;;;;;;;;;;9.85;77.38;98615.13;5061880;28;19988;-68
2022/12/12 03:55:56;;;;;;;;;;;;;;;10.03;76.27;98625.28;5061321;28;19955;-74
2022/12/12 03:58:31;;;;;;;;;;;;;;;10.07;76.39;98634.50;5063510;28;19921;-69
2022/12/12 04:00:59;;;;;;;;;;;;;;;10.18;75.78;98636.66;5062327;28;20328;-73
2022/12/12 04:03:33;;;;;;;;;;;;;;;10.20;75.50;98639.97;5061659;28;19928;-74
2022/12/12 04:06:28;;;;;;;;;;;;;;;10.25;75.20;98648.16;5061090;28;19962;-71
2022/12/12 04:14:51;;;;;;;;;;;;;;;9.78;75.75;98657.34;5062328;28;20331;-74
2022/12/12 04:17:21;;;;;;;;;;;;;;;9.32;77.42;98659.28;5061808;28;19971;-73
2022/12/12 04:23:14;;;;;;;;;;;;;;;8.95;79.53;98668.88;5060252;28;19924;-69
2022/12/12 04:28:58;;;;;;;;;;;;;;;8.97;80.50;98660.78;5059160;28;20268;-68
2022/12/12 04:31:25;;;;;;;;;;;;;;;9.16;80.67;98670.84;5060576;28;19995;-73
2022/12/12 04:33:53;;;;;;;;;;;;;;;9.25;79.95;98656.56;5059574;28;19966;-72
2022/12/12 04:36:21;;;;;;;;;;;;;;;9.45;79.35;98666.63;5060468;28;19916;-68
2022/12/12 04:38:48;;;;;;;;;;;;;;;9.43;77.50;98664.16;5061236;28;20209;-74
2022/12/12 04:41:15;;;;;;;;;;;;;;;8.93;78.46;98677.97;5060112;28;19960;-69
2022/12/12 04:43:42;;;;;;;;;;;;;;;8.87;79.35;98668.94;5062322;28;20107;-68
2022/12/12 04:46:20;;;;;;;;;;;;;;;8.58;80.06;98676.75;5062580;28;19928;-74
2022/12/12 04:48:49;;;;;;;;;;;;;;;8.51;80.76;98675.81;5060869;28;19929;-75
2022/12/12 04:51:17;;;;;;;;;;;;;;;8.34;81.37;98683.00;5062099;28;20145;-74
2022/12/12 04:53:48;;;;;;;;;;;;;;;8.50;81.19;98688.16;5062377;28;19956;-69
2022/12/12 04:56:16;;;;;;;;;;;;;;;8.59;80.35;98687.13;5061852;28;19963;-74
2022/12/12 04:58:42;;;;;;;;;;;;;;;8.52;80.52;98693.28;5062551;28;19928;-68
2022/12/12 05:01:10;;;;;;;;;;;;;;;8.48;80.41;98682.25;5062380;28;19925;-69
2022/12/12 05:03:35;;;;;;;;;;;;;;;8.41;81.05;98691.84;5061931;28;19928;-74
2022/12/12 05:06:06;;;;;;;;;;;;;;;8.44;80.55;98698.59;5060744;28;19987;-69
2022/12/12 05:08:34;;;;;;;;;;;;;;;8.13;81.22;98696.72;5061596;28;19928;-74
2022/12/12 05:11:01;;;;;;;;;;;;;;;7.92;82.15;98699.13;5061488;28;19924;-74
2022/12/12 05:13:27;;;;;;;;;;;;;;;7.85;82.31;98706.88;5061986;28;19962;-74
2022/12/12 05:15:54;;;;;;;;;;;;;;;7.77;83.39;98701.63;5061291;28;20115;-75
2022/12/12 05:18:21;;;;;;;;;;;;;;;7.83;83.52;98708.88;5059532;28;20801;-74
2022/12/12 05:20:47;;;;;;;;;;;;;;;7.95;82.53;98717.22;5061165;28;19924;-69
2022/12/12 05:23:12;;;;;;;;;;;;;;;7.92;82.43;98715.75;5061950;28;19983;-68
2022/12/12 05:25:37;;;;;;;;;;;;;;;8.04;81.49;98721.47;5061898;28;19944;-74
2022/12/12 05:28:03;;;;;;;;;;;;;;;7.94;81.37;98719.03;5061146;28;19920;-73
2022/12/12 05:30:28;;;;;;;;;;;;;;;7.76;81.79;98726.34;5061927;28;19984;-69
2022/12/12 05:32:54;;;;;;;;;;;;;;;7.53;82.39;98718.31;5061257;28;20371;-73
2022/12/12 05:35:19;;;;;;;;;;;;;;;7.56;82.61;98733.81;5061368;28;19984;-68
2022/12/12 05:37:44;;;;;;;;;;;;;;;7.77;81.88;98725.34;5060412;28;20207;-74
2022/12/12 05:40:10;;;;;;;;;;;;;;;7.77;81.40;98737.72;5061137;28;20031;-68
2022/12/12 05:42:36;;;;;;;;;;;;;;;7.51;82.81;98743.19;5061320;28;19948;-74
2022/12/12 05:45:01;;;;;;;;;;;;;;;7.50;83.57;98737.09;5061090;28;20269;-71
2022/12/12 05:47:27;;;;;;;;;;;;;;;7.65;82.92;98731.97;5061178;28;19975;-68
2022/12/12 05:49:52;;;;;;;;;;;;;;;7.78;82.62;98739.34;5060124;28;20088;-74
2022/12/12 05:52:18;;;;;;;;;;;;;;;7.81;82.79;98742.47;5061175;28;20096;-74
2022/12/12 05:54:43;;;;;;;;;;;;;;;7.98;82.23;98738.78;5061021;28;19924;-69
2022/12/12 05:57:09;;;;;;;;;;;;;;;8.20;81.05;98742.50;5060258;28;19917;-70
2022/12/12 05:59:34;;;;;;;;;;;;;;;8.07;80.78;98754.59;5061139;28;19987;-68
2022/12/12 06:01:59;;;;;;;;;;;;;;;7.96;82.06;98746.06;5061639;28;19917;-68
2022/12/12 06:04:25;;;;;;;;;;;;;;;8.13;81.88;98753.91;5061252;28;19939;-68
2022/12/12 06:06:50;;;;;;;;;;;;;;;8.23;81.53;98763.25;5061950;28;19948;-74
2022/12/12 06:09:16;;;;;;;;;;;;;;;8.29;81.08;98761.75;5060300;28;20018;-74
2022/12/12 06:11:41;;;;;;;;;;;;;;;8.18;81.12;98767.41;5061900;28;19992;-69
2022/12/12 06:14:06;;;;;;;;;;;;;;;8.04;81.54;98771.56;5060584;28;19988;-74
2022/12/12 06:16:33;;;;;;;;;;;;;;;8.11;81.88;98771.72;5061937;28;19980;-73
2022/12/12 06:18:59;;;;;;;;;;;;;;;8.35;81.33;98778.78;5061980;28;19930;-74
2022/12/12 06:21:24;;;;;;;;;;;;;;;8.28;81.88;98773.28;5061774;28;19916;-74
2022/12/12 06:23:50;;;;;;;;;;;;;;;8.42;81.54;98772.63;5060840;28;19921;-69
2022/12/12 06:26:16;;;;;;;;;;;;;;;8.54;81.70;98773.06;5060524;28;19917;-74
2022/12/12 06:28:42;;;;;;;;;;;;;;;8.64;81.42;98778.97;5061556;28;19992;-68
2022/12/12 06:31:08;;;;;;;;;;;;;;;8.72;81.36;98783.38;5061748;28;19925;-68
2022/12/12 06:33:34;;;;;;;;;;;;;;;8.87;80.74;98797.47;5061473;28;20207;-68
2022/12/12 06:36:04;;;;;;;;;;;;;;;8.94;80.78;98790.50;5060526;28;19988;-74
2022/12/12 06:38:30;;;;;;;;;;;;;;;9.00;81.13;98786.34;5060450;28;19996;-69
2022/12/12 06:40:56;;;;;;;;;;;;;;;9.02;80.84;98790.44;5061521;28;19923;-69
2022/12/12 06:43:21;;;;;;;;;;;;;;;8.95;80.77;98790.31;5060543;28;19987;-74
2022/12/12 06:45:46;;;;;;;;;;;;;;;8.79;82.13;98795.69;5057302;28;19933;-74
2022/12/12 06:48:11;;;;;;;;;;;;;;;8.79;81.83;98800.97;5056794;28;19916;-69
2022/12/12 06:50:41;;;;;;;;;;;;;;;8.94;80.70;98801.06;5057514;28;20152;-69
2022/12/12 06:53:06;;;;;;;;;;;;;;;9.09;81.17;98803.75;5059611;28;19929;-74
2022/12/12 06:55:31;;;;;;;;;;;;;;;8.93;81.39;98810.78;5059486;28;19923;-74
2022/12/12 06:57:56;;;;;;;;;;;;;;;8.78;83.19;98812.53;5060422;28;19971;-69
2022/12/12 07:00:22;;;;;;;;;;;;;;;8.85;82.86;98812.66;5059887;28;19925;-69
2022/12/12 07:02:47;;;;;;;;;;;;;;;8.92;81.97;98814.44;5059984;28;19929;-74
2022/12/12 07:05:12;;;;;;;;;;;;;;;9.01;81.24;98822.31;5061510;28;20246;-74
2022/12/12 07:07:37;;;;;;;;;;;;;;;9.10;81.37;98824.72;5060016;28;21604;-69
2022/12/12 07:10:03;;;;;;;;;;;;;;;9.19;81.20;98820.19;5060282;28;19916;-68
2022/12/12 07:12:29;;;;;;;;;;;;;;;9.24;80.54;98818.69;5060593;28;19925;-75
2022/12/12 07:14:54;;;;;;;;;;;;;;;9.36;81.31;98821.72;5060366;28;19921;-68
2022/12/12 07:17:19;;;;;;;;;;;;;;;9.55;80.55;98823.91;5060893;28;19924;-69
2022/12/12 07:19:44;;;;;;;;;;;;;;;9.67;79.74;98834.06;5060386;28;20157;-68
2022/12/12 07:22:10;;;;;;;;;;;;;;;9.64;79.73;98802.72;5061245;28;19924;-69
2022/12/12 07:24:35;;;;;;;;;;;;;;;10.07;79.62;98843.44;5059218;28;20034;-74
2022/12/12 07:27:00;;;;;;;;;;;;;;;10.02;80.67;98844.00;5060087;28;19917;-74
2022/12/12 07:29:25;;;;;;;;;;;;;;;9.87;81.33;98851.06;5059288;28;19948;-69
2022/12/12 07:31:51;;;;;;;;;;;;;;;9.54;82.33;98855.81;5059998;28;19924;-74
2022/12/12 07:34:16;;;;;;;;;;;;;;;9.35;81.50;98851.78;5059128;28;19921;-74
2022/12/12 07:36:41;;;;;;;;;;;;;;;9.28;82.40;98858.78;5060798;28;20158;-74
2022/12/12 07:39:06;;;;;;;;;;;;;;;9.11;84.30;98857.22;5060192;28;19928;-68
2022/12/12 07:41:32;;;;;;;;;;;;;;;9.15;84.16;98854.06;5060838;28;19956;-68
2022/12/12 07:43:58;;;;;;;;;;;;;;;8.96;83.51;98865.06;5059470;28;20004;-74
2022/12/12 07:46:24;;;;;;;;;;;;;;;9.12;83.96;98864.97;5060488;28;19992;-74
2022/12/12 07:48:50;;;;;;;;;;;;;;;9.36;82.45;98871.09;5059829;28;20189;-74
2022/12/12 07:51:15;;;;;;;;;;;;;;;9.58;82.21;98872.97;5059834;28;19917;-68
2022/12/12 07:53:41;;;;;;;;;;;;;;;9.74;81.70;98875.47;5060227;28;20007;-74
2022/12/12 07:56:07;;;;;;;;;;;;;;;9.78;80.63;98886.50;5059013;28;19984;-68
2022/12/12 07:58:33;;;;;;;;;;;;;;;9.89;81.96;98886.91;5059702;28;19931;-69
2022/12/12 08:00:58;;;;;;;;;;;;;;;10.13;80.55;98890.34;5056989;28;19924;-69
2022/12/12 08:03:23;;;;;;;;;;;;;;;10.18;78.04;98894.09;5057405;28;19948;-74
2022/12/12 08:05:49;;;;;;;;;;;;;;;10.29;77.84;98894.69;5060393;28;19924;-69
2022/12/12 08:08:14;;;;;;;;;;;;;;;10.44;78.21;98906.13;5058635;28;19927;-69
2022/12/12 08:10:39;;;;;;;;;;;;;;;10.55;78.48;98906.50;5059250;28;19986;-70
2022/12/12 08:13:05;;;;;;;;;;;;;;;10.59;78.45;98909.59;5057452;28;19959;-74
2022/12/12 08:15:31;;;;;;;;;;;;;;;10.55;78.39;98908.31;5060057;28;19916;-74
2022/12/12 08:17:56;;;;;;;;;;;;;;;10.66;77.70;98902.56;5057412;28;19916;-68
2022/12/12 08:20:21;;;;;;;;;;;;;;;10.67;78.74;98911.34;5057214;28;19971;-69
2022/12/12 08:22:47;;;;;;;;;;;;;;;10.64;79.19;98931.06;5058030;28;20266;-75
2022/12/12 08:25:12;;;;;;;;;;;;;;;10.70;79.66;98926.84;5060292;28;19916;-69
2022/12/12 08:27:38;;;;;;;;;;;;;;;10.72;79.09;98923.03;5058537;28;19920;-69
2022/12/12 08:30:03;;;;;;;;;;;;;;;10.88;78.35;98933.44;5058745;28;19917;-74
2022/12/12 08:32:29;;;;;;;;;;;;;;;10.97;77.92;98935.97;5058082;28;19924;-74
2022/12/12 08:34:55;;;;;;;;;;;;;;;11.09;77.42;98930.03;5058455;28;19933;-74
2022/12/12 08:37:20;;;;;;;;;;;;;;;11.22;76.35;98918.75;5059081;28;20026;-69
2022/12/12 08:39:45;;;;;;;;;;;;;;;11.31;76.33;98922.13;5058640;28;19920;-69
2022/12/12 08:42:12;;;;;;;;;;;;;;;11.36;75.96;98922.38;5059397;28;20004;-69
2022/12/12 08:44:37;;;;;;;;;;;;;;;11.22;76.96;98886.16;5057606;28;19925;-74
2022/12/12 08:47:02;;;;;;;;;;;;;;;11.48;75.98;98924.38;5057919;28;19932;-69
2022/12/12 08:49:27;;;;;;;;;;;;;;;11.46;75.03;98929.06;5057996;28;20210;-74
2022/12/12 08:51:53;;;;;;;;;;;;;;;11.47;75.66;98928.06;5058453;28;19991;-74
2022/12/12 08:54:18;;;;;;;;;;;;;;;11.48;75.56;98924.38;5056630;28;19943;-74
2022/12/12 08:56:43;;;;;;;;;;;;;;;11.55;74.95;98924.47;5059123;28;19917;-74
2022/12/12 08:59:09;;;;;;;;;;;;;;;11.61;74.93;98929.00;5058279;28;19921;-69
2022/12/12 09:01:34;;;;;;;;;;;;;;;11.58;75.28;98929.38;5058460;28;19925;-74
2022/12/12 09:03:59;;;;;;;;;;;;;;;11.65;75.61;98932.94;5057705;28;19921;-68
2022/12/12 09:06:25;;;;;;;;;;;;;;;11.63;74.60;98931.47;5058943;28;20173;-69
2022/12/12 09:08:50;;;;;;;;;;;;;;;11.66;75.27;98933.75;5057847;28;20328;-74
2022/12/12 09:11:16;;;;;;;;;;;;;;;11.59;75.44;98930.22;5057503;28;20122;-74
2022/12/12 09:13:42;;;;;;;;;;;;;;;11.36;76.01;98933.00;5057260;28;19928;-69
2022/12/12 09:16:08;;;;;;;;;;;;;;;11.43;76.57;98925.94;5057349;28;19924;-74
2022/12/12 09:18:34;;;;;;;;;;;;;;;11.72;74.96;98923.19;5057743;28;19967;-73
2022/12/12 09:21:00;;;;;;;;;;;;;;;11.78;74.22;98917.16;5056778;28;20115;-74
2022/12/12 09:23:26;;;;;;;;;;;;;;;11.86;73.60;98923.34;5058649;28;19921;-69
2022/12/12 09:25:51;;;;;;;;;;;;;;;11.94;73.75;98923.22;5057338;28;19917;-75
2022/12/12 09:28:18;;;;;;;;;;;;;;;12.00;74.50;98925.13;5057258;28;19928;-74
2022/12/12 09:30:43;;;;;;;;;;;;;;;11.98;73.78;98922.66;5058278;28;19925;-74
2022/12/12 09:33:09;;;;;;;;;;;;;;;11.93;72.55;98917.09;5056338;28;19928;-74
2022/12/12 09:35:34;;;;;;;;;;;;;;;11.95;73.36;98916.91;5058277;28;19917;-69
2022/12/12 09:37:59;;;;;;;;;;;;;;;12.05;73.51;98918.22;5056334;28;19925;-69
2022/12/12 09:40:34;;;;;;;;;;;;;;;12.02;73.56;98915.13;5056882;28;19971;-69
2022/12/12 09:43:01;;;;;;;;;;;;;;;12.11;72.87;98914.81;5057569;28;19929;-74
2022/12/12 09:45:26;;;;;;;;;;;;;;;12.23;73.71;98906.31;5057680;28;19924;-69
2022/12/12 09:47:57;;;;;;;;;;;;;;;12.39;72.80;98904.19;5041102;28;19928;-75
2022/12/12 09:50:34;;;;;;;;;;;;;;;12.28;72.59;98894.09;5057621;28;19928;-74
2022/12/12 09:53:04;;;;;;;;;;;;;;;12.25;72.73;98891.84;5055812;28;19923;-75
2022/12/12 09:55:29;;;;;;;;;;;;;;;12.32;72.42;98898.00;5055319;28;20223;-70
2022/12/12 09:58:01;;;;;;;;;;;;;;;12.10;73.72;98905.22;5056764;28;19924;-69
2022/12/12 10:00:29;;;;;;;;;;;;;;;11.88;74.47;98862.97;5057197;28;19992;-74
2022/12/12 10:02:54;;;;;;;;;;;;;;;12.16;74.39;98887.69;5057264;28;20246;-74
2022/12/12 10:05:40;;;;;;;;;;;;;;;12.52;73.13;98881.44;5057657;28;20011;-70
2022/12/12 10:08:22;;;;;;;;;;;;;;;12.64;72.57;98883.34;5056885;28;19917;-74
2022/12/12 10:10:50;;;;;;;;;;;;;;;12.67;72.07;98869.66;5056625;28;19960;-74
2022/12/12 10:13:18;;;;;;;;;;;;;;;12.77;70.82;98867.47;5056400;28;19924;-69
2022/12/12 10:15:49;;;;;;;;;;;;;;;12.89;70.94;98877.53;5057244;28;20107;-69
2022/12/12 10:18:17;;;;;;;;;;;;;;;12.77;70.22;98845.38;5056922;28;19955;-69
2022/12/12 10:20:46;;;;;;;;;;;;;;;12.82;70.47;98880.16;5056968;28;19927;-74
2022/12/12 10:23:11;;;;;;;;;;;;;;;12.78;70.88;98878.91;5060136;28;19939;-69
2022/12/12 10:25:46;;;;;;;;;;;;;;;12.82;71.56;98871.38;5063239;28;19929;-69
2022/12/12 10:28:13;;;;;;;;;;;;;;;12.58;72.40;98881.47;5065525;28;19963;-74
2022/12/12 10:31:11;;;;;;;;;;;;;;;12.86;72.45;98864.63;5065691;28;19959;-74
2022/12/12 10:33:48;;;;;;;;;;;;;;;12.81;72.60;98869.72;5053606;28;19925;-74
2022/12/12 10:36:33;;;;;;;;;;;;;;;12.98;71.42;98857.72;5065339;28;20259;-75
2022/12/12 10:38:59;;;;;;;;;;;;;;;12.91;71.04;98848.91;5065496;28;19917;-69
2022/12/12 10:41:36;;;;;;;;;;;;;;;12.82;72.61;98853.59;5065617;28;19928;-74
2022/12/12 10:44:23;;;;;;;;;;;;;;;12.90;72.09;98847.28;5065211;28;19916;-69
2022/12/12 10:47:01;;;;;;;;;;;;;;;13.05;70.72;98846.09;5065350;28;19929;-69
2022/12/12 10:49:26;;;;;;;;;;;;;;;13.21;70.30;98838.81;5065805;28;19952;-74
2022/12/12 10:51:53;;;;;;;;;;;;;;;13.16;70.66;98841.22;5065086;28;19924;-69
2022/12/12 10:54:20;;;;;;;;;;;;;;;12.98;71.68;98849.75;5065578;28;20132;-69
2022/12/12 10:57:04;;;;;;;;;;;;;;;12.96;71.37;98843.81;5065349;28;19920;-69
2022/12/12 10:59:29;;;;;;;;;;;;;;;13.16;71.69;98839.41;5065345;28;19917;-74
2022/12/12 11:01:58;;;;;;;;;;;;;;;13.31;70.18;98840.06;5065223;28;19943;-75
2022/12/12 11:04:24;;;;;;;;;;;;;;;13.30;70.09;98846.41;5065437;28;20118;-74
2022/12/12 11:06:54;;;;;;;;;;;;;;;13.34;71.52;98850.31;5064941;28;19951;-69
2022/12/12 11:09:19;;;;;;;;;;;;;;;13.26;72.55;98847.00;5064929;28;20114;-74
2022/12/12 11:12:04;;;;;;;;;;;;;;;13.33;71.34;98843.34;5065119;28;19964;-68
2022/12/12 11:14:32;;;;;;;;;;;;;;;13.40;70.79;98836.19;5060983;28;19924;-69
2022/12/12 11:16:57;;;;;;;;;;;;;;;13.25;70.93;98832.09;5063811;28;19936;-69
2022/12/12 11:19:24;;;;;;;;;;;;;;;13.37;71.54;98825.16;5065094;28;20214;-69
2022/12/12 11:21:51;;;;;;;;;;;;;;;13.40;71.82;98824.75;5064607;28;19952;-74
2022/12/12 11:24:18;;;;;;;;;;;;;;;13.26;71.72;98821.25;5064894;28;19932;-69
2022/12/12 11:27:03;;;;;;;;;;;;;;;13.28;72.13;98815.72;5064822;28;19929;-74
2022/12/12 11:29:43;;;;;;;;;;;;;;;13.18;71.77;98818.78;5061759;28;19963;-74
2022/12/12 11:32:13;;;;;;;;;;;;;;;13.15;72.07;98811.16;5064941;28;19940;-75
2022/12/12 11:34:42;;;;;;;;;;;;;;;13.13;73.29;98810.56;5063600;28;19924;-69
2022/12/12 11:37:12;;;;;;;;;;;;;;;12.87;73.55;98798.03;5059046;28;19921;-69
2022/12/12 11:39:41;;;;;;;;;;;;;;;12.76;74.45;98804.72;5058804;28;19996;-75
2022/12/12 11:42:12;;;;;;;;;;;;;;;13.01;72.97;98801.53;5060069;28;19933;-75
2022/12/12 11:44:38;;;;;;;;;;;;;;;13.16;72.34;98796.03;5059237;28;19924;-74
2022/12/12 11:47:23;;;;;;;;;;;;;;;13.01;73.31;98797.03;5059770;28;20211;-69
2022/12/12 11:49:50;;;;;;;;;;;;;;;13.09;72.22;98809.31;5060860;28;19921;-75
2022/12/12 11:52:29;;;;;;;;;;;;;;;13.11;72.71;98802.78;5059786;28;20151;-75
2022/12/12 11:54:54;;;;;;;;;;;;;;;13.17;72.10;98792.41;5059205;28;19924;-75
2022/12/12 11:57:20;;;;;;;;;;;;;;;13.19;72.26;98799.16;5059685;28;19982;-69
2022/12/12 12:00:10;;;;;;;;;;;;;;;13.18;72.67;98805.50;5058837;28;19987;-74
2022/12/12 12:02:57;;;;;;;;;;;;;;;13.19;73.76;98801.00;5060036;28;19933;-69
2022/12/12 12:05:35;;;;;;;;;;;;;;;13.33;71.92;98802.66;5060128;28;19927;-69
2022/12/12 12:08:02;;;;;;;;;;;;;;;13.37;71.78;98810.00;5057939;28;19958;-69
2022/12/12 12:10:47;;;;;;;;;;;;;;;13.38;72.22;98802.84;5058682;28;19921;-75
2022/12/12 12:13:30;;;;;;;;;;;;;;;13.50;72.38;98811.06;5058234;28;19943;-75
2022/12/12 12:16:11;;;;;;;;;;;;;;;13.57;72.44;98803.94;5058534;28;19921;-70
2022/12/12 12:19:06;;;;;;;;;;;;;;;13.59;72.20;98816.00;5058889;28;19967;-69
2022/12/12 12:21:37;;;;;;;;;;;;;;;13.85;70.76;98803.72;5052314;28;20309;-74
2022/12/12 12:24:14;;;;;;;;;;;;;;;13.80;70.81;98811.50;5058937;28;19917;-69
2022/12/12 12:26:42;;;;;;;;;;;;;;;13.76;71.35;98815.59;5058400;28;19928;-69
2022/12/12 12:29:26;;;;;;;;;;;;;;;13.69;71.06;98805.78;5059302;28;20155;-69
2022/12/12 12:32:03;;;;;;;;;;;;;;;13.75;71.93;98809.47;5059191;28;20182;-75
2022/12/12 12:34:35;;;;;;;;;;;;;;;13.58;72.44;98811.72;5057924;28;19916;-74
2022/12/12 12:37:26;;;;;;;;;;;;;;;13.41;73.86;98811.25;5058331;28;19920;-74
2022/12/12 12:39:54;;;;;;;;;;;;;;;13.49;73.70;98814.72;5057303;28;19984;-74
2022/12/12 12:42:41;;;;;;;;;;;;;;;13.60;73.88;98808.84;5057255;28;19930;-69
2022/12/12 12:45:21;;;;;;;;;;;;;;;13.68;73.35;98813.97;5056322;28;19920;-69
2022/12/12 12:47:53;;;;;;;;;;;;;;;13.63;73.91;98814.56;5072828;28;19991;-75
2022/12/12 12:50:22;;;;;;;;;;;;;;;13.66;74.19;98816.00;5057685;28;20230;-73
2022/12/12 12:52:54;;;;;;;;;;;;;;;13.56;74.26;98810.28;5056866;28;19924;-69
2022/12/12 12:55:22;;;;;;;;;;;;;;;13.51;75.23;98802.06;5056874;28;19927;-75
2022/12/12 12:57:49;;;;;;;;;;;;;;;13.30;76.04;98795.06;5057981;28;19918;-74
2022/12/12 13:00:17;;;;;;;;;;;;;;;13.37;76.48;98798.56;5059146;28;19928;-74
2022/12/12 13:02:48;;;;;;;;;;;;;;;13.41;75.99;98789.97;5057418;28;19923;-69
2022/12/12 13:05:31;;;;;;;;;;;;;;;13.42;76.29;98790.78;5057953;28;20043;-69
2022/12/12 13:08:05;;;;;;;;;;;;;;;13.34;75.86;98788.34;5055819;28;20199;-74
2022/12/12 13:10:30;;;;;;;;;;;;;;;13.24;76.77;98790.56;5057458;28;19921;-73
2022/12/12 13:12:59;;;;;;;;;;;;;;;13.15;77.13;98795.22;5057366;28;19917;-74
2022/12/12 13:15:29;;;;;;;;;;;;;;;13.19;77.16;98787.69;5056734;28;19921;-75
2022/12/12 13:18:00;;;;;;;;;;;;;;;13.24;77.18;98785.25;5058563;28;19940;-69